Terminal Aerodrome Forecast
Issued by NWS Twin Cities, MN

Home | Current Version | Previous Version | Text Only | Print | Product List | Glossary Off
Versions: 1 2 3 4 5 6 7 8 9 10 11 12 13 14 15 16 17 18 19 20 21

222
FTUS43 KMPX 171138
TAFEAU
TAF
KEAU 171138Z 1712/1812 02007KT 2SM -SN BR OVC007
     FM171800 33005KT 4SM BR OVC015
     FM172000 30005KT 6SM BR BKN020 OVC035
     FM180000 24004KT P6SM SCT040 SCT150=

USA.gov is the U.S. government's official web portal to all federal, state and local government web resources and services.